• Join FlightAware (Why Join?)
  • Login
  • US Flag 
11:27AM EDT


 

Airport Tracker/Info


-or-


 

Live Flight TrackerFlight Track Log ✈ N762NC ✈ 18-Aug-2013 ✈ KATL - KGSO

Flight Track Log - Related Links

Times and Time Zones

All times are in EDT time to prevent confusion due to time zone crossing. See the N762NC flight status page for this flight to view local times or setup timezone preferences in your user account.

Time Position Orientation Groundspeed Altitude Reporting Facility
EDT Latitude Longitude Course Direction KTS MPH feet Rate Location/Type
12:07AM 33.6519 -84.3808 54° Northeast 447 514 2,200  Level Atlanta Center
12:08AM 33.6814 -84.3008 66° East 296 341 5,000 2,760 Climbing Atlanta Center
12:09AM 33.8167 -83.9017 90° East  Level FlightAware Approximate
12:09AM 33.7169 -84.2186 63° Northeast 296 341 7,800  Level Atlanta Center
12:10AM 33.8775 -83.7822 54° Northeast  Level FlightAware Approximate
12:10AM 33.7608 -84.1214 61° Northeast 321 369 10,200  Level Atlanta Center
12:11AM 33.9466 -83.6689 54° Northeast  Level FlightAware Approximate
12:11AM 33.8067 -84.0164 62° Northeast 340 391 11,600  Level Atlanta Center
12:12AM 34.0157 -83.5554 54° Northeast  Level FlightAware Approximate
12:12AM 33.8608 -83.8986 61° Northeast 355 409 13,900  Level Atlanta Center
12:13AM 33.9297 -83.8008 50° Northeast 369 425 15,900 1,800 Climbing Atlanta Center
12:14AM 33.9961 -83.6981 52° Northeast 387 445 17,500 1,500 Climbing Atlanta Center
12:15AM 34.0647 -83.5875 53° Northeast 395 455 19,000 1,500 Climbing Atlanta Center
12:16AM 34.1311 -83.4742 55° Northeast 401 461 20,500 1,440 Climbing Atlanta Center
12:17AM 34.2056 -83.3606 52° Northeast 418 481 21,900 1,200 Climbing Atlanta Center
12:18AM 34.2886 -83.2569 46° Northeast 429 494 23,000 960 Climbing Atlanta Center
12:19AM 34.3733 -83.1428 48° Northeast 439 505 23,900 480 Climbing Atlanta Center
12:20AM 34.4558 -83.0236 50° Northeast 445 512 24,000  Climbing Atlanta Center
12:21AM 34.5361 -82.8914 54° Northeast 474 545 24,000 -60 Level Atlanta Center
12:22AM 34.6142 -82.7592 54° Northeast 479 551 23,900  Descending Atlanta Center
12:23AM 34.7003 -82.6314 51° Northeast 485 558 24,000  Climbing Atlanta Center
12:24AM 34.7694 -82.4914 59° Northeast 480 552 24,000  Level Atlanta Center
12:25AM 34.8408 -82.3558 57° Northeast 474 545 24,000  Level Atlanta Center
12:26AM 34.9119 -82.2200 57° Northeast 474 545 24,000  Level Atlanta Center
12:27AM 34.9747 -82.0997 57° Northeast 467 537 24,000  Level Atlanta Center
12:28AM 35.0456 -81.9636 58° Northeast 467 537 24,000  Level Atlanta Center
12:29AM 35.1286 -81.8192 55° Northeast 474 545 24,000  Level Atlanta Center
12:30AM 35.2075 -81.6850 54° Northeast 474 545 24,000  Level Atlanta Center
12:31AM 35.2819 -81.5531 55° Northeast 474 545 24,000  Level Atlanta Center
12:32AM 35.3606 -81.4208 54° Northeast 474 545 24,000  Level Atlanta Center
12:33AM 35.4369 -81.2858 55° Northeast 474 545 24,000 -960 Level Atlanta Center
12:34AM 35.5111 -81.1533 55° Northeast 479 551 22,100 -2,340 Descending Atlanta Center
12:35AM 35.5872 -81.0228 54° Northeast 479 551 19,400 -2,400 Descending Atlanta Center
12:36AM 35.6594 -80.9053 53° Northeast 448 516 17,300 -2,340 Descending Atlanta Center
12:37AM 35.7125 -80.7831 62° Northeast 427 491 14,800 -1,860 Descending Atlanta Center
12:38AM 35.7594 -80.6608 65° Northeast 394 453 13,600 -900 Descending Atlanta Center
12:39AM 35.7997 -80.5389 68° East 384 442 13,000 -720 Descending Atlanta Center
12:40AM 35.8361 -80.4219 69° East 369 425 12,200 -1,200 Descending Atlanta Center
12:41AM 35.8689 -80.3333 65° Northeast 314 361 10,600 -2,280 Descending Atlanta Center
12:42AM 35.8994 -80.2397 68° East 291 335 7,700 -2,460 Descending Atlanta Center
12:43AM 35.9347 -80.1664 59° Northeast 291 335 5,700 -1,800 Descending Atlanta Center
12:44AM 35.9828 -80.1050 46° Northeast 268 308 4,100 -1,440 Descending Atlanta Center
12:45AM 36.0247 -80.0489 47° Northeast 241 277 2,900 -1,080 Descending Atlanta Center
12:46AM 36.0628 -80.0033 44° Northeast 211 243 2,000 -900 Descending Atlanta Center